Time;durP1;ratioP1;P1;durP2;ratioP2;P2;SDS_P1;SDS_P2;PMS_P1;PMS_P2;Temp;Humidity;BMP_temperature;BMP_pressure;BME280_temperature;BME280_humidity;BME280_pressure;Samples;Min_cycle;Max_cycle;Signal;HPM_P1;HPM_P2
2022/06/17 00:01:01;;;;;;;3.83;1.50;;;25.20;54.00;;;;;;4878158;29;20045;-42
2022/06/17 00:03:29;;;;;;;4.05;1.33;;;25.20;54.00;;;;;;4879017;29;20037;-42
2022/06/17 00:05:56;;;;;;;3.38;1.70;;;25.20;54.00;;;;;;4877771;29;20641;-44
2022/06/17 00:08:30;;;;;;;2.10;1.20;;;25.20;53.90;;;;;;4878035;29;20555;-43
2022/06/17 00:10:56;;;;;;;1.90;1.25;;;25.20;54.00;;;;;;4880382;29;20060;-43
2022/06/17 00:13:23;;;;;;;2.70;1.42;;;25.20;53.90;;;;;;4881253;29;20084;-43
2022/06/17 00:15:49;;;;;;;3.00;1.40;;;25.20;53.80;;;;;;4880960;29;20033;-44
2022/06/17 00:18:17;;;;;;;2.83;1.42;;;25.20;53.80;;;;;;4882823;29;20104;-43
2022/06/17 00:20:45;;;;;;;2.55;1.30;;;25.20;53.70;;;;;;4879649;29;20029;-44
2022/06/17 00:23:20;;;;;;;2.58;1.52;;;25.20;53.80;;;;;;4880797;29;20028;-44
2022/06/17 00:25:48;;;;;;;2.22;1.27;;;25.20;53.50;;;;;;4880118;29;20511;-44
2022/06/17 00:28:17;;;;;;;2.97;1.40;;;25.20;53.60;;;;;;4880902;29;20599;-44
2022/06/17 00:30:45;;;;;;;2.50;1.38;;;25.20;53.40;;;;;;4881277;29;20609;-43
2022/06/17 00:33:12;;;;;;;2.50;1.17;;;25.20;53.50;;;;;;4881815;29;20572;-43
2022/06/17 00:35:51;;;;;;;3.53;1.50;;;25.20;53.50;;;;;;4881329;29;20817;-45
2022/06/17 00:38:21;;;;;;;3.10;1.20;;;25.20;53.50;;;;;;4880474;29;20032;-43
2022/06/17 00:40:48;;;;;;;2.40;1.20;;;25.20;53.60;;;;;;4882407;29;20032;-43
2022/06/17 00:43:34;;;;;;;1.90;1.10;;;25.20;53.60;;;;;;4880836;29;20834;-44
2022/06/17 00:46:26;;;;;;;2.35;1.30;;;25.20;53.60;;;;;;4880642;29;20131;-43
2022/06/17 00:49:02;;;;;;;2.35;1.23;;;25.20;53.50;;;;;;4882029;29;20017;-44
2022/06/17 00:51:35;;;;;;;2.22;1.23;;;25.20;53.60;;;;;;4882172;29;20028;-44
2022/06/17 00:54:18;;;;;;;2.47;1.30;;;25.20;53.50;;;;;;4880654;29;20024;-44
2022/06/17 00:56:43;;;;;;;2.47;1.20;;;25.10;53.60;;;;;;4881113;29;20024;-42
2022/06/17 00:59:13;;;;;;;2.53;1.65;;;25.20;53.50;;;;;;4880550;29;20028;-43
2022/06/17 01:02:04;;;;;;;2.55;1.30;;;25.20;53.50;;;;;;4879841;29;20088;-43
2022/06/17 01:04:43;;;;;;;2.67;1.35;;;25.20;53.40;;;;;;4879119;29;20558;-44
2022/06/17 01:07:27;;;;;;;3.17;1.20;;;25.20;53.40;;;;;;4880259;29;20830;-43
2022/06/17 01:09:57;;;;;;;3.10;1.30;;;25.20;53.40;;;;;;4879273;29;20691;-42
2022/06/17 01:12:26;;;;;;;2.20;1.30;;;25.20;53.30;;;;;;4880773;29;20518;-44
2022/06/17 01:14:54;;;;;;;2.85;1.40;;;25.20;53.30;;;;;;4879834;29;20108;-42
2022/06/17 01:17:21;;;;;;;2.78;1.45;;;25.20;53.30;;;;;;4879896;29;20021;-44
2022/06/17 01:19:54;;;;;;;2.65;1.40;;;25.20;53.30;;;;;;4880560;29;20025;-43
2022/06/17 01:22:43;;;;;;;3.17;1.55;;;25.20;53.30;;;;;;4879549;29;20060;-43
2022/06/17 01:25:15;;;;;;;3.10;1.58;;;25.20;53.30;;;;;;4880536;29;20112;-44
2022/06/17 01:27:48;;;;;;;3.05;1.75;;;25.20;53.30;;;;;;4878597;29;20025;-42
2022/06/17 01:30:27;;;;;;;2.40;1.33;;;25.20;53.90;;;;;;4880164;29;20040;-44
2022/06/17 01:33:00;;;;;;;3.03;1.85;;;25.20;53.20;;;;;;4880926;29;20105;-44
2022/06/17 01:35:35;;;;;;;2.85;1.35;;;25.20;53.20;;;;;;4879480;29;20584;-43
2022/06/17 01:38:01;;;;;;;2.80;1.70;;;25.10;53.20;;;;;;4877756;29;20620;-44
2022/06/17 01:40:28;;;;;;;2.58;1.27;;;25.20;53.20;;;;;;4879740;29;20039;-43
2022/06/17 01:42:57;;;;;;;3.13;1.83;;;25.20;53.10;;;;;;4877591;29;20021;-44
2022/06/17 01:45:23;;;;;;;2.80;1.75;;;25.20;53.10;;;;;;4878167;29;20052;-43
2022/06/17 01:47:49;;;;;;;2.40;1.40;;;25.20;53.10;;;;;;4880115;29;20027;-44
2022/06/17 01:50:22;;;;;;;2.22;1.40;;;25.20;53.20;;;;;;4882488;29;20104;-44
2022/06/17 01:52:52;;;;;;;2.58;1.50;;;25.20;53.10;;;;;;4882305;29;20841;-44
2022/06/17 01:55:26;;;;;;;2.85;1.65;;;25.20;53.10;;;;;;4883747;29;20055;-43
2022/06/17 01:58:07;;;;;;;2.17;1.30;;;25.20;53.10;;;;;;4882803;29;20059;-43
2022/06/17 02:00:33;;;;;;;2.20;1.40;;;25.20;53.00;;;;;;4878506;29;20033;-44
2022/06/17 02:03:24;;;;;;;2.92;1.73;;;25.20;52.90;;;;;;4878534;29;20040;-43
2022/06/17 02:06:02;;;;;;;2.42;1.50;;;25.20;53.00;;;;;;4876971;29;20069;-42
2022/06/17 02:08:27;;;;;;;3.17;1.70;;;25.20;52.90;;;;;;4878832;29;20025;-45
2022/06/17 02:10:53;;;;;;;3.42;1.58;;;25.20;52.90;;;;;;4879269;29;20055;-43
2022/06/17 02:13:19;;;;;;;4.18;1.60;;;25.20;52.80;;;;;;4877931;29;20036;-44
2022/06/17 02:15:46;;;;;;;3.30;1.75;;;25.20;52.80;;;;;;4880477;29;20037;-44
2022/06/17 02:18:16;;;;;;;2.55;1.40;;;25.10;52.80;;;;;;4882046;29;20028;-43
2022/06/17 02:20:42;;;;;;;2.55;1.50;;;25.20;52.80;;;;;;4880090;29;20735;-44
2022/06/17 02:23:08;;;;;;;3.35;1.65;;;25.20;52.70;;;;;;4879098;29;20079;-44
2022/06/17 02:25:39;;;;;;;3.90;1.77;;;25.20;52.80;;;;;;4880284;29;20027;-44
2022/06/17 02:28:06;;;;;;;2.50;1.50;;;25.20;52.70;;;;;;4878841;29;20029;-43
2022/06/17 02:30:33;;;;;;;2.40;1.38;;;25.10;52.80;;;;;;4878995;29;20542;-43
2022/06/17 02:33:02;;;;;;;2.40;1.48;;;25.10;52.60;;;;;;4878968;29;20036;-44
2022/06/17 02:35:49;;;;;;;2.05;1.30;;;25.10;52.70;;;;;;4877072;29;20227;-45
2022/06/17 02:38:19;;;;;;;1.92;1.20;;;25.10;52.80;;;;;;4878910;29;20029;-44
2022/06/17 02:40:59;;;;;;;2.80;1.50;;;25.20;52.70;;;;;;4878371;29;20389;-43
2022/06/17 02:43:32;;;;;;;2.55;1.60;;;25.10;52.70;;;;;;4878492;29;20028;-44
2022/06/17 02:46:04;;;;;;;2.03;1.27;;;25.20;52.70;;;;;;4878745;29;20029;-44
2022/06/17 02:48:37;;;;;;;2.75;1.45;;;25.20;52.70;;;;;;4880060;29;20497;-43
2022/06/17 02:51:03;;;;;;;2.20;1.48;;;25.20;52.60;;;;;;4878718;29;20090;-45
2022/06/17 02:53:35;;;;;;;2.47;1.30;;;25.20;52.60;;;;;;4879853;29;20786;-44
2022/06/17 02:56:09;;;;;;;2.47;1.30;;;25.20;52.60;;;;;;4882369;29;20096;-43
2022/06/17 02:58:40;;;;;;;3.05;1.70;;;25.20;52.50;;;;;;4879837;29;20032;-44
2022/06/17 03:01:16;;;;;;;3.15;1.50;;;25.20;52.60;;;;;;4879262;29;20057;-43
2022/06/17 03:03:44;;;;;;;2.15;1.20;;;25.20;52.60;;;;;;4879365;29;20048;-44
2022/06/17 03:06:17;;;;;;;3.75;1.77;;;25.20;52.50;;;;;;4880158;29;20029;-43
2022/06/17 03:08:47;;;;;;;3.22;1.45;;;25.20;52.50;;;;;;4879761;29;20029;-43
2022/06/17 03:11:12;;;;;;;3.30;1.95;;;25.10;52.60;;;;;;4879652;29;20108;-44
2022/06/17 03:13:59;;;;;;;2.38;1.40;;;25.20;52.50;;;;;;4878532;29;20160;-43
2022/06/17 03:16:26;;;;;;;1.92;1.20;;;25.20;53.20;;;;;;4878332;29;20162;-44
2022/06/17 03:18:53;;;;;;;3.00;1.50;;;25.10;52.50;;;;;;4879295;29;20029;-42
2022/06/17 03:21:24;;;;;;;3.25;1.65;;;25.20;52.50;;;;;;4879055;29;20445;-42
2022/06/17 03:24:23;;;;;;;2.65;1.35;;;25.10;52.50;;;;;;4878419;29;20021;-43
2022/06/17 03:27:04;;;;;;;3.15;1.30;;;25.10;52.60;;;;;;4876283;29;20043;-44
2022/06/17 03:29:32;;;;;;;2.50;1.60;;;25.20;52.50;;;;;;4878353;29;20049;-44
2022/06/17 03:32:03;;;;;;;3.30;1.70;;;25.20;52.40;;;;;;4878403;29;20049;-44
2022/06/17 03:34:40;;;;;;;3.10;1.67;;;25.20;52.50;;;;;;4882058;29;20040;-44
2022/06/17 03:37:34;;;;;;;2.50;1.42;;;25.20;52.50;;;;;;4879608;29;20033;-43
2022/06/17 03:40:12;;;;;;;2.88;1.60;;;25.10;52.40;;;;;;4879310;29;20037;-42
2022/06/17 03:43:12;;;;;;;3.25;1.45;;;25.20;52.40;;;;;;4893880;29;20031;-44
2022/06/17 03:45:54;;;;;;;4.30;2.17;;;25.20;52.40;;;;;;4877786;29;20087;-43
2022/06/17 03:48:26;;;;;;;2.58;1.60;;;25.20;52.30;;;;;;4882047;29;20032;-42
2022/06/17 03:50:52;;;;;;;2.90;1.60;;;25.20;52.40;;;;;;4880081;29;20025;-43
2022/06/17 03:53:25;;;;;;;2.70;1.58;;;25.20;52.30;;;;;;4881414;29;20025;-43
2022/06/17 03:55:53;;;;;;;2.53;1.65;;;25.20;52.40;;;;;;4881088;29;20029;-43
2022/06/17 03:58:20;;;;;;;2.90;1.63;;;25.10;52.30;;;;;;4882122;29;20099;-44
2022/06/17 04:00:48;;;;;;;2.55;1.52;;;25.10;52.30;;;;;;4883474;29;20089;-44
2022/06/17 04:03:18;;;;;;;2.85;1.95;;;25.10;52.30;;;;;;4882267;29;20124;-45
2022/06/17 04:05:46;;;;;;;2.63;1.63;;;25.20;52.20;;;;;;4880667;29;20104;-44
2022/06/17 04:08:12;;;;;;;3.33;1.67;;;25.20;52.30;;;;;;4881210;29;20021;-43
2022/06/17 04:10:38;;;;;;;2.50;1.70;;;25.20;52.20;;;;;;4884585;29;20029;-42
2022/06/17 04:13:06;;;;;;;3.20;1.45;;;25.20;52.20;;;;;;4884929;29;20716;-45
2022/06/17 04:15:53;;;;;;;3.53;1.67;;;25.20;52.20;;;;;;4881867;29;20044;-44
2022/06/17 04:18:19;;;;;;;3.47;1.67;;;25.20;52.20;;;;;;4881817;29;20033;-44
2022/06/17 04:20:52;;;;;;;3.17;1.80;;;25.20;52.10;;;;;;4882629;29;20029;-44
2022/06/17 04:23:27;;;;;;;3.22;1.70;;;25.20;52.10;;;;;;4879228;29;20037;-42
2022/06/17 04:26:03;;;;;;;2.72;1.67;;;25.20;52.10;;;;;;4881098;29;20108;-43
2022/06/17 04:28:43;;;;;;;2.70;1.67;;;25.20;52.10;;;;;;4878928;29;20043;-43
2022/06/17 04:31:15;;;;;;;2.95;1.80;;;25.20;52.00;;;;;;4881290;29;20654;-44
2022/06/17 04:33:55;;;;;;;3.15;2.00;;;25.20;52.00;;;;;;4883933;29;20024;-45
2022/06/17 04:37:02;;;;;;;3.38;1.80;;;25.20;52.00;;;;;;4878932;29;20029;-44
2022/06/17 04:39:43;;;;;;;2.50;1.60;;;25.20;52.00;;;;;;4880656;29;20036;-44
2022/06/17 04:42:16;;;;;;;2.53;1.58;;;25.20;52.00;;;;;;4878946;29;20449;-44
2022/06/17 04:44:43;;;;;;;3.88;1.70;;;25.20;51.90;;;;;;4886440;29;20707;-43
2022/06/17 04:47:17;;;;;;;3.78;1.75;;;25.20;51.90;;;;;;4879958;29;20033;-44
2022/06/17 04:49:46;;;;;;;2.70;1.73;;;25.20;51.90;;;;;;4882143;29;20040;-43
2022/06/17 04:52:34;;;;;;;5.05;1.88;;;25.20;51.80;;;;;;4880341;29;20059;-44
2022/06/17 04:55:01;;;;;;;2.20;1.40;;;25.10;51.90;;;;;;4881743;29;20127;-43
2022/06/17 04:57:29;;;;;;;3.33;1.80;;;25.20;51.80;;;;;;4880491;29;20454;-44
2022/06/17 04:59:58;;;;;;;3.05;1.77;;;25.20;51.70;;;;;;4880148;29;20053;-44
2022/06/17 05:02:28;;;;;;;3.90;1.90;;;25.20;51.70;;;;;;4879684;29;21616;-44
2022/06/17 05:05:00;;;;;;;2.55;1.60;;;25.20;51.80;;;;;;4881168;29;20048;-44
2022/06/17 05:07:29;;;;;;;3.25;1.75;;;25.20;51.70;;;;;;4879525;29;20017;-44
2022/06/17 05:10:01;;;;;;;2.88;1.77;;;25.20;51.70;;;;;;4879859;29;20115;-43
2022/06/17 05:12:41;;;;;;;2.63;1.70;;;25.20;51.70;;;;;;4879853;29;20077;-44
2022/06/17 05:15:15;;;;;;;2.90;1.65;;;25.20;51.70;;;;;;4879408;29;20055;-44
2022/06/17 05:17:41;;;;;;;3.10;1.85;;;25.20;51.70;;;;;;4878879;29;20018;-44
2022/06/17 05:20:13;;;;;;;2.25;1.40;;;25.20;51.80;;;;;;4881347;29;20044;-44
2022/06/17 05:22:44;;;;;;;2.80;1.80;;;25.20;51.80;;;;;;4878852;29;20025;-45
2022/06/17 05:25:27;;;;;;;3.00;1.85;;;25.20;51.70;;;;;;4879584;29;20056;-44
2022/06/17 05:27:53;;;;;;;3.15;1.60;;;25.20;51.70;;;;;;4879931;29;20028;-43
2022/06/17 05:30:19;;;;;;;2.72;1.58;;;25.20;51.70;;;;;;4879592;29;20591;-43
2022/06/17 05:32:49;;;;;;;2.55;1.83;;;25.20;51.60;;;;;;4879883;29;20032;-42
2022/06/17 05:35:15;;;;;;;3.45;2.25;;;25.20;51.70;;;;;;4882607;29;20405;-44
2022/06/17 05:37:41;;;;;;;2.80;1.73;;;25.20;51.70;;;;;;4881577;29;20113;-43
2022/06/17 05:40:08;;;;;;;2.95;1.70;;;25.20;51.70;;;;;;4879132;29;20627;-42
2022/06/17 05:42:38;;;;;;;2.17;1.50;;;25.20;51.70;;;;;;4879243;29;20088;-43
2022/06/17 05:45:05;;;;;;;2.90;1.48;;;25.20;51.80;;;;;;4878777;29;20025;-44
2022/06/17 05:47:31;;;;;;;3.88;1.73;;;25.20;51.70;;;;;;4878365;29;20039;-42
2022/06/17 05:49:57;;;;;;;3.55;1.90;;;25.20;51.70;;;;;;4881205;29;20107;-43
2022/06/17 05:52:23;;;;;;;3.10;1.70;;;25.20;51.70;;;;;;4879716;29;20108;-43
2022/06/17 05:54:49;;;;;;;2.47;1.70;;;25.30;51.70;;;;;;4879131;29;20024;-43
2022/06/17 05:57:16;;;;;;;3.45;1.92;;;25.30;51.60;;;;;;4878119;29;20021;-44
2022/06/17 05:59:42;;;;;;;3.05;1.80;;;25.30;51.60;;;;;;4878446;29;20639;-44
2022/06/17 06:02:11;;;;;;;3.53;1.67;;;25.30;51.60;;;;;;4884215;29;20037;-43
2022/06/17 06:04:37;;;;;;;3.58;2.10;;;25.30;51.50;;;;;;4879153;29;20032;-43
2022/06/17 06:07:03;;;;;;;3.05;1.73;;;25.30;51.50;;;;;;4877753;29;20025;-44
2022/06/17 06:09:29;;;;;;;3.38;2.03;;;25.30;51.50;;;;;;4878746;29;20682;-45
2022/06/17 06:11:54;;;;;;;2.47;1.80;;;25.30;51.40;;;;;;4878382;29;20022;-44
2022/06/17 06:14:20;;;;;;;3.17;2.00;;;25.30;51.40;;;;;;4878607;29;20113;-45
2022/06/17 06:16:46;;;;;;;3.58;2.17;;;25.30;51.40;;;;;;4879507;29;20051;-44
2022/06/17 06:19:11;;;;;;;3.83;2.20;;;25.30;52.30;;;;;;4879068;29;20315;-45
2022/06/17 06:21:37;;;;;;;4.78;2.15;;;25.30;52.50;;;;;;4880532;29;20037;-44
2022/06/17 06:24:03;;;;;;;3.72;2.10;;;25.30;52.30;;;;;;4879645;29;20036;-45
2022/06/17 06:26:29;;;;;;;3.67;2.17;;;25.30;52.30;;;;;;4879033;29;20033;-44
2022/06/17 06:28:56;;;;;;;4.07;2.25;;;25.30;53.10;;;;;;4877434;29;20044;-45
2022/06/17 06:31:21;;;;;;;4.65;2.15;;;25.40;52.90;;;;;;4886192;29;20112;-45
2022/06/17 06:33:47;;;;;;;3.47;2.40;;;25.40;53.50;;;;;;4888007;29;20115;-44
2022/06/17 06:36:13;;;;;;;3.53;2.60;;;25.40;52.80;;;;;;4888021;29;20032;-44
2022/06/17 06:38:39;;;;;;;5.30;2.10;;;25.40;52.60;;;;;;4884217;29;20033;-46
2022/06/17 06:41:05;;;;;;;3.60;2.40;;;25.40;52.40;;;;;;4880109;29;20048;-45
2022/06/17 06:43:31;;;;;;;3.97;2.70;;;25.50;52.10;;;;;;4883960;29;20358;-44
2022/06/17 06:45:57;;;;;;;4.22;2.80;;;25.50;51.60;;;;;;4887550;29;20036;-45
2022/06/17 06:48:25;;;;;;;3.47;2.40;;;25.50;51.60;;;;;;4886270;29;20037;-43
2022/06/17 06:50:52;;;;;;;4.28;3.05;;;25.60;51.20;;;;;;4884921;29;20063;-43
2022/06/17 06:53:17;;;;;;;4.13;2.80;;;25.60;51.00;;;;;;4887328;29;20040;-45
2022/06/17 06:55:43;;;;;;;3.88;2.50;;;25.60;50.80;;;;;;4887028;29;20373;-44
2022/06/17 06:58:12;;;;;;;4.60;2.90;;;25.60;50.90;;;;;;4887335;29;20032;-46
2022/06/17 07:00:42;;;;;;;4.00;2.63;;;25.60;50.00;;;;;;4887930;29;20116;-44
2022/06/17 07:03:08;;;;;;;5.07;3.05;;;25.60;50.60;;;;;;4887200;29;20044;-44
2022/06/17 07:05:37;;;;;;;4.40;3.22;;;25.60;50.40;;;;;;4887008;29;20569;-45
2022/06/17 07:08:04;;;;;;;6.05;3.30;;;25.70;50.40;;;;;;4880318;29;20037;-45
2022/06/17 07:10:33;;;;;;;3.97;2.90;;;25.70;50.40;;;;;;4886049;29;20017;-45
2022/06/17 07:12:59;;;;;;;4.88;3.05;;;25.70;50.30;;;;;;4886928;29;20745;-44
2022/06/17 07:15:25;;;;;;;3.67;2.92;;;25.80;50.20;;;;;;4886656;29;20132;-43
2022/06/17 07:17:55;;;;;;;4.40;3.03;;;25.80;50.20;;;;;;4886525;29;20481;-45
2022/06/17 07:20:23;;;;;;;4.85;3.03;;;25.80;50.20;;;;;;4887408;29;20037;-45
2022/06/17 07:22:49;;;;;;;4.28;3.00;;;25.90;50.00;;;;;;4891407;29;20780;-44
2022/06/17 07:25:15;;;;;;;3.92;2.83;;;25.90;49.80;;;;;;4888670;29;20041;-44
2022/06/17 07:27:40;;;;;;;4.57;2.95;;;25.90;49.60;;;;;;4882363;29;20323;-44
2022/06/17 07:30:07;;;;;;;4.70;2.95;;;25.90;49.60;;;;;;4879963;29;20037;-44
2022/06/17 07:32:33;;;;;;;3.95;2.65;;;25.90;49.40;;;;;;4880656;29;20464;-44
2022/06/17 07:34:58;;;;;;;4.00;2.88;;;26.00;49.80;;;;;;4882120;29;20055;-42
2022/06/17 07:40:13;;;;;;;3.88;2.45;;;26.00;50.00;;;;;;4873017;29;20144;-44
2022/06/17 07:42:39;;;;;;;3.90;2.80;;;26.10;49.90;;;;;;4880771;29;20100;-44
2022/06/17 07:45:14;;;;;;;4.95;3.15;;;26.00;49.80;;;;;;4880460;29;20028;-44
2022/06/17 07:47:40;;;;;;;5.03;3.20;;;26.10;49.70;;;;;;4879973;29;20025;-44
2022/06/17 07:50:11;;;;;;;4.30;2.67;;;26.10;50.10;;;;;;4882399;29;20540;-43
2022/06/17 07:52:37;;;;;;;5.03;2.92;;;26.10;50.20;;;;;;4890393;29;20036;-45
2022/06/17 07:55:04;;;;;;;5.95;2.70;;;26.10;50.60;;;;;;4890503;29;20033;-44
2022/06/17 07:57:30;;;;;;;4.10;2.75;;;26.10;50.70;;;;;;4889592;29;20032;-46
2022/06/17 07:59:56;;;;;;;5.22;3.13;;;26.10;50.50;;;;;;4889893;29;20035;-44
2022/06/17 08:02:21;;;;;;;3.92;2.92;;;26.10;51.00;;;;;;4889218;29;20035;-44
2022/06/17 08:04:47;;;;;;;4.20;3.22;;;26.20;51.10;;;;;;4889823;29;20037;-44
2022/06/17 08:07:13;;;;;;;4.20;2.95;;;26.20;51.10;;;;;;4889289;29;20045;-44
2022/06/17 08:09:40;;;;;;;4.50;2.90;;;26.20;51.00;;;;;;4889400;29;20516;-45
2022/06/17 08:12:08;;;;;;;5.38;3.40;;;26.30;51.30;;;;;;4889129;29;20029;-43
2022/06/17 08:14:35;;;;;;;5.20;3.65;;;26.30;52.10;;;;;;4890104;29;20060;-43
2022/06/17 08:17:02;;;;;;;5.53;3.55;;;26.30;51.80;;;;;;4883794;29;20033;-45
2022/06/17 08:19:28;;;;;;;5.28;3.13;;;26.30;51.80;;;;;;4887059;29;20037;-45
2022/06/17 08:21:54;;;;;;;3.50;2.53;;;26.40;51.40;;;;;;4888383;29;20124;-45
2022/06/17 08:24:19;;;;;;;4.32;2.63;;;26.40;51.10;;;;;;4893638;29;20119;-45
2022/06/17 08:26:45;;;;;;;4.10;2.60;;;26.40;50.90;;;;;;4888246;29;20072;-44
2022/06/17 08:29:11;;;;;;;4.00;2.75;;;26.40;50.70;;;;;;4850446;29;1140244;-45
2022/06/17 08:31:37;;;;;;;3.90;2.55;;;26.40;50.70;;;;;;4881121;29;20029;-43
2022/06/17 08:34:03;;;;;;;4.53;2.47;;;26.40;50.60;;;;;;4890554;29;20040;-45
2022/06/17 08:36:29;;;;;;;3.42;2.40;;;26.40;50.60;;;;;;4887627;29;20149;-44
2022/06/17 08:39:06;;;;;;;4.45;2.53;;;26.30;50.50;;;;;;4887476;29;20036;-45
2022/06/17 08:41:51;;;;;;;3.33;2.38;;;26.40;50.40;;;;;;4888993;29;20044;-45
2022/06/17 08:44:36;;;;;;;3.38;2.40;;;26.40;50.40;;;;;;4884637;29;20043;-45
2022/06/17 08:47:44;;;;;;;2.88;2.03;;;26.40;50.40;;;;;;4888276;29;20058;-43
2022/06/17 08:50:25;;;;;;;4.30;2.50;;;26.40;50.30;;;;;;4867112;29;20783;-45
2022/06/17 08:53:07;;;;;;;4.55;2.47;;;26.40;50.00;;;;;;4884257;29;20044;-43
2022/06/17 08:55:54;;;;;;;4.17;2.60;;;26.40;49.80;;;;;;4883080;29;20025;-45
2022/06/17 08:58:36;;;;;;;3.42;2.33;;;26.40;49.70;;;;;;4883684;29;20273;-44
2022/06/17 09:01:23;;;;;;;3.70;2.50;;;26.40;49.60;;;;;;4888010;29;20510;-46
2022/06/17 09:04:27;;;;;;;8.73;2.70;;;26.40;49.90;;;;;;4888924;29;20071;-43
2022/06/17 09:07:08;;;;;;;6.82;2.83;;;26.40;50.10;;;;;;4864694;29;20037;-45
2022/06/17 09:10:03;;;;;;;3.50;2.28;;;26.40;50.00;;;;;;4882822;29;20020;-43
2022/06/17 09:12:44;;;;;;;4.00;2.28;;;26.40;50.00;;;;;;4881329;29;21285;-45
2022/06/17 09:16:00;;;;;;;2.67;1.77;;;26.40;49.50;;;;;;4880402;29;20717;-41
2022/06/17 09:18:29;;;;;;;3.28;2.13;;;26.40;49.50;;;;;;4867638;29;20045;-43
2022/06/17 09:21:15;;;;;;;3.85;2.55;;;26.40;49.30;;;;;;4887979;29;20679;-45
2022/06/17 09:23:41;;;;;;;4.07;2.13;;;26.30;49.50;;;;;;4888381;29;20443;-46
2022/06/17 09:26:24;;;;;;;4.97;2.38;;;26.30;49.20;;;;;;4889458;29;20416;-45
2022/06/17 09:29:18;;;;;;;4.85;2.50;;;26.30;49.30;;;;;;4889351;29;20036;-45
2022/06/17 09:32:00;;;;;;;4.05;2.10;;;26.30;49.30;;;;;;4878022;29;20024;-43
2022/06/17 09:34:40;;;;;;;3.33;2.20;;;26.30;48.70;;;;;;4888748;29;20138;-44
2022/06/17 09:37:14;;;;;;;5.18;3.17;;;26.30;48.80;;;;;;4888722;29;20091;-45
2022/06/17 09:39:46;;;;;;;6.93;3.20;;;26.30;48.50;;;;;;4889021;29;20077;-45
2022/06/17 09:42:21;;;;;;;3.97;2.45;;;26.30;48.80;;;;;;4887342;29;20470;-45
2022/06/17 09:44:54;;;;;;;4.28;2.88;;;26.20;49.00;;;;;;4888636;29;20123;-46
2022/06/17 09:47:41;;;;;;;4.35;2.63;;;26.20;48.60;;;;;;4888857;29;20032;-46
2022/06/17 09:50:36;;;;;;;4.35;2.40;;;26.20;49.20;;;;;;4889018;29;20127;-44
2022/06/17 09:53:44;;;;;;;5.18;2.53;;;26.20;48.50;;;;;;4889313;29;20037;-45
2022/06/17 09:56:15;;;;;;;3.45;2.13;;;26.20;48.50;;;;;;4888257;29;20405;-45
2022/06/17 09:58:45;;;;;;;4.38;2.35;;;26.20;48.70;;;;;;4888338;29;20564;-45
2022/06/17 10:01:12;;;;;;;4.28;2.35;;;26.20;48.70;;;;;;4887081;29;20032;-45
2022/06/17 10:03:39;;;;;;;3.65;2.33;;;26.20;47.80;;;;;;4887124;29;20024;-45
2022/06/17 10:06:23;;;;;;;4.55;2.88;;;26.20;47.60;;;;;;4887272;29;20036;-45
2022/06/17 10:09:20;;;;;;;5.63;2.78;;;26.20;47.10;;;;;;4887447;29;20029;-44
2022/06/17 10:11:50;;;;;;;3.60;2.20;;;26.20;48.00;;;;;;4888291;29;20438;-46
2022/06/17 10:14:35;;;;;;;5.18;2.45;;;26.10;47.40;;;;;;4886393;29;20115;-42
2022/06/17 10:20:24;;;;;;;4.70;2.35;;;26.10;48.20;;;;;;4885093;29;20025;-43
2022/06/17 10:23:27;;;;;;;3.38;2.20;;;26.10;48.20;;;;;;4876953;29;20049;-42
2022/06/17 10:26:13;;;;;;;3.60;2.03;;;26.10;47.60;;;;;;4873140;29;20029;-42
2022/06/17 10:29:12;;;;;;;4.00;2.55;;;26.10;48.00;;;;;;4885232;29;20709;-44
2022/06/17 10:31:48;;;;;;;9.48;5.20;;;26.10;48.60;;;;;;4869876;29;20544;-44
2022/06/17 10:34:26;;;;;;;18.30;11.75;;;26.10;49.40;;;;;;4886368;29;20040;-43
2022/06/17 10:36:54;;;;;;;34.47;20.50;;;26.10;50.90;;;;;;4887665;29;20060;-42
2022/06/17 10:39:23;;;;;;;54.67;28.02;;;26.10;52.40;;;;;;4888056;29;20573;-42
2022/06/17 10:41:50;;;;;;;51.90;31.70;;;26.20;53.20;;;;;;4887903;29;20747;-44
2022/06/17 10:44:21;;;;;;;60.65;36.85;;;26.30;53.40;;;;;;4887891;29;20047;-44
2022/06/17 10:46:55;;;;;;;58.88;32.63;;;26.30;53.10;;;;;;4887858;29;20031;-45
2022/06/17 10:49:39;;;;;;;38.22;24.48;;;26.30;53.30;;;;;;4887801;29;20039;-45
2022/06/17 10:52:21;;;;;;;33.97;19.42;;;26.40;51.20;;;;;;4887652;29;20055;-43
2022/06/17 10:54:50;;;;;;;22.90;13.47;;;26.40;50.30;;;;;;4888082;29;20032;-44
2022/06/17 10:57:31;;;;;;;20.40;11.52;;;26.40;49.10;;;;;;4887459;29;20037;-43
2022/06/17 10:59:56;;;;;;;17.17;9.82;;;26.40;48.50;;;;;;4888213;29;20489;-43
2022/06/17 11:02:30;;;;;;;17.45;8.98;;;26.40;48.50;;;;;;4887055;29;20044;-44
2022/06/17 11:05:02;;;;;;;14.68;8.30;;;26.50;48.50;;;;;;4880210;29;20059;-45
2022/06/17 11:07:50;;;;;;;15.37;7.23;;;26.40;48.40;;;;;;4884155;29;20063;-44
2022/06/17 11:10:16;;;;;;;15.77;7.35;;;26.50;48.30;;;;;;4886532;29;20273;-46
2022/06/17 11:12:59;;;;;;;13.68;6.80;;;26.50;48.00;;;;;;4887314;29;20021;-45
2022/06/17 11:15:36;;;;;;;8.35;4.47;;;26.50;47.90;;;;;;4886952;29;20135;-45
2022/06/17 11:18:09;;;;;;;7.75;3.67;;;26.50;47.10;;;;;;4887096;29;20079;-48
2022/06/17 11:20:38;;;;;;;6.85;3.53;;;26.50;47.00;;;;;;4887202;29;20694;-45
2022/06/17 11:23:20;;;;;;;8.63;4.45;;;26.50;46.70;;;;;;4887586;29;20052;-44
2022/06/17 11:25:46;;;;;;;6.30;3.70;;;26.50;47.50;;;;;;4886318;29;20607;-45
2022/06/17 11:28:20;;;;;;;5.07;2.75;;;26.50;46.90;;;;;;4886068;29;20730;-46
2022/06/17 11:30:58;;;;;;;4.82;2.75;;;26.40;45.80;;;;;;4887875;29;20029;-44
2022/06/17 11:33:40;;;;;;;5.30;2.60;;;26.40;45.50;;;;;;4888065;29;20095;-45
2022/06/17 11:36:16;;;;;;;6.65;3.03;;;26.40;45.60;;;;;;4887617;29;20822;-46
2022/06/17 11:38:42;;;;;;;5.18;2.58;;;26.40;46.10;;;;;;4887706;29;20029;-43
2022/06/17 11:41:09;;;;;;;6.03;3.13;;;26.50;46.10;;;;;;4887339;29;20033;-43
2022/06/17 11:43:38;;;;;;;6.68;2.60;;;26.40;46.50;;;;;;4886509;29;20036;-45
2022/06/17 11:46:28;;;;;;;5.10;2.58;;;26.40;46.00;;;;;;4887586;29;20164;-47
2022/06/17 11:49:00;;;;;;;4.47;2.10;;;26.50;45.80;;;;;;4887855;29;20017;-43
2022/06/17 11:51:30;;;;;;;5.07;2.37;;;26.40;46.40;;;;;;4887744;29;20059;-43
2022/06/17 11:54:21;;;;;;;6.15;3.22;;;26.40;46.80;;;;;;4887835;29;20275;-44
2022/06/17 11:56:48;;;;;;;4.65;2.60;;;26.40;47.00;;;;;;4887236;29;20060;-43
2022/06/17 11:59:18;;;;;;;4.57;2.45;;;26.40;46.80;;;;;;4887425;29;20119;-43
2022/06/17 12:02:04;;;;;;;5.22;2.83;;;26.40;46.80;;;;;;4886792;29;20835;-43
2022/06/17 12:04:59;;;;;;;5.57;2.42;;;26.50;46.50;;;;;;4885053;29;20214;-45
2022/06/17 12:07:52;;;;;;;5.28;2.08;;;26.50;45.60;;;;;;4889557;29;20029;-46
2022/06/17 12:10:46;;;;;;;4.60;2.30;;;26.40;46.10;;;;;;4890655;29;20032;-45
2022/06/17 12:13:15;;;;;;;4.28;1.98;;;26.40;46.20;;;;;;4891395;29;20032;-46
2022/06/17 12:15:42;;;;;;;5.47;2.63;;;26.50;46.00;;;;;;4889393;29;20053;-45
2022/06/17 12:18:16;;;;;;;4.35;2.40;;;26.50;46.30;;;;;;4890401;29;20043;-45
2022/06/17 12:21:06;;;;;;;6.15;2.63;;;26.50;46.40;;;;;;4889508;29;20041;-45
2022/06/17 12:23:42;;;;;;;4.90;2.40;;;26.50;46.70;;;;;;4882248;29;20036;-46
2022/06/17 12:26:19;;;;;;;3.33;1.77;;;26.50;46.80;;;;;;4880346;29;20043;-44
2022/06/17 12:28:57;;;;;;;3.22;1.92;;;26.50;44.40;;;;;;4876399;29;20045;-44
2022/06/17 12:31:31;;;;;;;2.70;1.55;;;26.60;47.00;;;;;;4880360;29;20112;-44
2022/06/17 12:34:10;;;;;;;5.50;2.10;;;26.60;46.80;;;;;;4877624;29;20036;-43
2022/06/17 12:37:03;;;;;;;4.10;2.10;;;26.60;47.90;;;;;;4892087;29;20115;-45
2022/06/17 12:39:47;;;;;;;4.13;2.30;;;26.60;47.60;;;;;;4877524;29;20043;-45
2022/06/17 12:42:34;;;;;;;6.20;2.45;;;26.70;47.90;;;;;;4876793;29;20157;-43
2022/06/17 12:45:21;;;;;;;5.03;2.22;;;26.70;48.00;;;;;;4890213;29;20384;-45
2022/06/17 12:47:50;;;;;;;4.15;2.08;;;26.70;47.70;;;;;;4890578;29;20032;-42
2022/06/17 12:53:54;;;;;;;4.90;1.90;;;26.80;47.50;;;;;;4888902;29;20037;-42
2022/06/17 12:56:39;;;;;;;4.25;2.00;;;26.70;47.40;;;;;;4870620;29;20052;-43
2022/06/17 12:59:20;;;;;;;4.55;1.83;;;26.80;47.20;;;;;;4879724;29;20677;-41
2022/06/17 13:02:07;;;;;;;5.47;1.90;;;26.80;46.60;;;;;;4880270;29;20083;-40
2022/06/17 13:05:04;;;;;;;4.47;1.92;;;26.80;47.00;;;;;;4884251;29;20029;-42
2022/06/17 13:07:37;;;;;;;6.25;2.22;;;26.80;46.90;;;;;;4890137;29;20089;-42
2022/06/17 13:10:41;;;;;;;4.18;1.77;;;26.90;46.50;;;;;;4890231;29;20048;-42
2022/06/17 13:13:32;;;;;;;2.75;1.40;;;26.90;46.60;;;;;;4890349;29;20036;-42
2022/06/17 13:16:08;;;;;;;4.30;1.67;;;26.90;44.60;;;;;;4889624;29;20044;-43
2022/06/17 13:18:44;;;;;;;3.38;1.40;;;26.80;45.50;;;;;;4888614;29;20033;-45
2022/06/17 13:21:21;;;;;;;3.75;1.38;;;26.90;45.70;;;;;;4889286;29;20862;-46
2022/06/17 13:23:59;;;;;;;4.28;1.67;;;26.90;44.10;;;;;;4888365;29;20041;-45
2022/06/17 13:26:30;;;;;;;2.90;1.38;;;26.90;44.60;;;;;;4890048;29;20025;-43
2022/06/17 13:29:30;;;;;;;4.22;1.83;;;26.80;43.90;;;;;;4889468;29;20434;-44